Friday, November 24, 2017, 12:39 AM EST
Back to Local

KFRG, Farmingdale Republic Airport

Location: Farmingdale, NY, United States Lat: 40.733
Local Time: 12:39 AM EST ( 5:39 GMT) Lon: -73.417
Time Zone: US/Eastern Elev: 82 ft

Show me the last for .
Show Decoded

2017-11-23 23:53 METAR KFRG 240453Z AUTO 30003KT 10SM CLR 00/M04 A3004 RMK AO2 SLP171 T00001039
                 400611017 =
2017-11-23 22:53 METAR KFRG 240353Z AUTO 00000KT 10SM CLR 01/M04 A3004 RMK AO2 SLP174 T00111039 =
2017-11-23 21:53 METAR KFRG 240253Z AUTO 00000KT 10SM CLR 01/M04 A3004 RMK AO2 SLP172 T00061039
                 53003 =
2017-11-23 20:53 METAR KFRG 240153Z 00000KT 10SM CLR 01/M04 A3002 RMK AO2 SLP164 T00061044 =
2017-11-23 19:53 METAR KFRG 240053Z 00000KT 10SM CLR 02/M04 A3001 RMK AO2 SLP163 T00171044 =
2017-11-23 18:53 METAR KFRG 232353Z 00000KT 10SM CLR 02/M05 A3003 RMK AO2 SLP169 T00221050 10061
                 20017 53003 =
2017-11-23 17:53 METAR KFRG 232253Z 00000KT 10SM CLR 02/M06 A3002 RMK AO2 SLP165 T00221056 =
2017-11-23 16:53 METAR KFRG 232153Z 00000KT 10SM CLR 04/M08 A3002 RMK AO2 SLP166 T00441078 =
2017-11-23 15:53 METAR KFRG 232053Z VRB04KT 10SM CLR 05/M08 A3002 RMK AO2 SLP166 T00501078 56010
                 =
2017-11-23 14:53 METAR KFRG 231953Z VRB03KT 10SM CLR 05/M07 A3002 RMK AO2 SLP166 T00501072 =
2017-11-23 13:53 METAR KFRG 231853Z 35007KT 310V010 10SM CLR 06/M07 A3002 RMK AO2 SLP167
                 T00561067 =
2017-11-23 12:53 METAR KFRG 231753Z 36006KT 10SM CLR 05/M06 A3005 RMK AO2 SLP176 T00501061 10056
                 21017 56020 =
2017-11-23 11:53 METAR KFRG 231653Z 29008KT 10SM CLR 04/M06 A3006 RMK AO2 SLP180 T00391061 =
2017-11-23 10:53 METAR KFRG 231553Z 32008KT 10SM CLR 04/M06 A3009 RMK AO2 SLP189 T00391061 =
2017-11-23 09:53 METAR KFRG 231453Z 33009KT 10SM CLR 03/M06 A3011 RMK AO2 SLP196 T00281061 50002
                 =
2017-11-23 08:53 METAR KFRG 231353Z 34009KT 10SM CLR 02/M06 A3012 RMK AO2 SLP199 T00221061 =
2017-11-23 07:53 METAR KFRG 231253Z 00000KT 10SM CLR 00/M06 A3011 RMK AO2 SLP197 T00001056 =
2017-11-23 06:53 METAR KFRG 231153Z 23004KT 10SM CLR M02/M06 A3010 RMK AO2 SLP194 70026 T10171061
                 10017 21017 53012 =
2017-11-23 05:53 METAR KFRG 231053Z AUTO 32003KT 10SM CLR M01/M06 A3008 RMK AO2 SLP185 T10061061
                 =
2017-11-23 04:53 METAR KFRG 230953Z AUTO 32005KT 10SM CLR 00/M06 A3007 RMK AO2 SLP184 T00001061 =
2017-11-23 03:53 METAR KFRG 230853Z AUTO 31005KT 10SM CLR 00/M06 A3007 RMK AO2 SLP183 T00001061
                 50003 =
2017-11-23 02:53 METAR KFRG 230753Z AUTO 32006KT 10SM CLR 01/M06 A3007 RMK AO2 SLP183 T00061061 =
2017-11-23 01:53 METAR KFRG 230653Z AUTO 30007KT 10SM CLR 01/M06 A3007 RMK AO2 SLP184 T00061056 =
2017-11-23 00:53 METAR KFRG 230553Z AUTO 30006KT 10SM CLR 02/M05 A3006 RMK AO2 SLP179 T00171050
                 10056 20017 50007 =

Support USWX by starting your Amazon purchase here.